Time;durP1;ratioP1;P1;durP2;ratioP2;P2;SDS_P1;SDS_P2;PMS_P1;PMS_P2;Temp;Humidity;BMP_temperature;BMP_pressure;BME280_temperature;BME280_humidity;BME280_pressure;Samples;Min_cycle;Max_cycle;Signal;HPM_P1;HPM_P2
2021/05/03 00:00:01;;;;;;;3.47;1.77;;;;;;;;;;5010556;28;20478;-74
2021/05/03 00:02:27;;;;;;;1.83;1.70;;;;;;;;;;5025775;28;20427;-77
2021/05/03 00:04:53;;;;;;;2.10;2.00;;;;;;;;;;5021290;28;20436;-77
2021/05/03 00:07:19;;;;;;;5.20;1.90;;;;;;;;;;5009070;28;20470;-78
2021/05/03 00:09:45;;;;;;;2.57;2.37;;;;;;;;;;5021945;28;20485;-76
2021/05/03 00:12:12;;;;;;;2.40;2.20;;;;;;;;;;5006855;28;20925;-76
2021/05/03 00:14:38;;;;;;;1.90;1.80;;;;;;;;;;5021863;28;20430;-78
2021/05/03 00:17:04;;;;;;;2.93;2.00;;;;;;;;;;5007242;28;20467;-76
2021/05/03 00:19:30;;;;;;;2.40;1.90;;;;;;;;;;5026278;28;20441;-77
2021/05/03 00:21:56;;;;;;;1.97;1.87;;;;;;;;;;5027571;28;20522;-76
2021/05/03 00:24:22;;;;;;;1.90;1.80;;;;;;;;;;5029555;28;20484;-76
2021/05/03 00:26:48;;;;;;;2.80;2.60;;;;;;;;;;5026327;28;20479;-75
2021/05/03 00:29:14;;;;;;;1.97;1.73;;;;;;;;;;5032034;28;20435;-79
2021/05/03 00:31:40;;;;;;;4.73;2.20;;;;;;;;;;5007206;28;20753;-76
2021/05/03 00:34:06;;;;;;;2.50;2.27;;;;;;;;;;5003816;28;20442;-76
2021/05/03 00:36:32;;;;;;;2.70;1.97;;;;;;;;;;5030954;28;20462;-74
2021/05/03 00:38:58;;;;;;;2.90;2.50;;;;;;;;;;5012002;28;20435;-74
2021/05/03 00:41:24;;;;;;;1.80;1.70;;;;;;;;;;5025658;28;20921;-75
2021/05/03 00:43:51;;;;;;;2.00;1.90;;;;;;;;;;5013465;28;20568;-75
2021/05/03 00:46:19;;;;;;;3.50;2.50;;;;;;;;;;5007798;28;20470;-74
2021/05/03 00:48:46;;;;;;;2.20;2.00;;;;;;;;;;5027605;28;20443;-77
2021/05/03 00:51:12;;;;;;;2.67;2.47;;;;;;;;;;5027023;28;20863;-75
2021/05/03 00:53:38;;;;;;;3.97;2.03;;;;;;;;;;5026477;28;20419;-75
2021/05/03 00:56:04;;;;;;;3.90;2.40;;;;;;;;;;5026186;28;20446;-74
2021/05/03 00:58:31;;;;;;;6.20;2.60;;;;;;;;;;5026760;28;20430;-75
2021/05/03 01:00:57;;;;;;;5.30;2.60;;;;;;;;;;5025164;28;20435;-76
2021/05/03 01:03:23;;;;;;;2.87;2.67;;;;;;;;;;5025514;28;20537;-74
2021/05/03 01:05:49;;;;;;;2.57;1.83;;;;;;;;;;5009096;28;20545;-75
2021/05/03 01:08:17;;;;;;;2.50;2.30;;;;;;;;;;5008627;28;20455;-75
2021/05/03 01:10:43;;;;;;;3.10;2.50;;;;;;;;;;5023736;28;20949;-74
2021/05/03 01:13:09;;;;;;;4.20;2.13;;;;;;;;;;5024589;28;21013;-74
2021/05/03 01:15:35;;;;;;;2.40;2.20;;;;;;;;;;5026460;28;20539;-75
2021/05/03 01:18:03;;;;;;;2.43;2.20;;;;;;;;;;5024680;28;20517;-75
2021/05/03 01:20:30;;;;;;;2.40;2.20;;;;;;;;;;5007471;28;20964;-75
2021/05/03 01:22:57;;;;;;;2.53;2.33;;;;;;;;;;5010421;28;21206;-76
2021/05/03 01:25:27;;;;;;;4.50;2.10;;;;;;;;;;5008183;28;20439;-75
2021/05/03 01:27:53;;;;;;;2.90;2.60;;;;;;;;;;5009515;28;20451;-72
2021/05/03 01:30:20;;;;;;;2.43;2.23;;;;;;;;;;5024044;28;20549;-73
2021/05/03 01:32:46;;;;;;;5.00;2.10;;;;;;;;;;5008617;28;20979;-73
2021/05/03 01:35:15;;;;;;;2.60;2.20;;;;;;;;;;5028125;28;20439;-74
2021/05/03 01:37:41;;;;;;;2.40;2.20;;;;;;;;;;5000449;28;20908;-74
2021/05/03 01:40:09;;;;;;;2.40;2.30;;;;;;;;;;5025903;28;20539;-73
2021/05/03 01:42:36;;;;;;;4.80;1.97;;;;;;;;;;5027271;28;20445;-71
2021/05/03 01:45:03;;;;;;;3.77;1.93;;;;;;;;;;5025847;28;20443;-72
2021/05/03 01:47:30;;;;;;;3.47;1.97;;;;;;;;;;5009078;28;20478;-73
2021/05/03 01:49:56;;;;;;;2.60;2.40;;;;;;;;;;5030695;28;20439;-75
2021/05/03 01:52:22;;;;;;;2.37;2.17;;;;;;;;;;5004885;28;20435;-73
2021/05/03 01:54:49;;;;;;;3.57;2.23;;;;;;;;;;5009031;28;20446;-73
2021/05/03 01:57:18;;;;;;;7.80;1.90;;;;;;;;;;5028124;28;20466;-73
2021/05/03 01:59:45;;;;;;;2.73;2.37;;;;;;;;;;5005576;28;20471;-73
2021/05/03 02:02:11;;;;;;;4.20;2.13;;;;;;;;;;5009396;28;20461;-72
2021/05/03 02:04:37;;;;;;;7.37;1.93;;;;;;;;;;5006835;28;20454;-72
2021/05/03 02:07:03;;;;;;;2.70;1.90;;;;;;;;;;5023492;28;20481;-73
2021/05/03 02:09:29;;;;;;;2.23;1.50;;;;;;;;;;5010100;28;20470;-73
2021/05/03 02:11:55;;;;;;;2.07;1.90;;;;;;;;;;5008369;28;20754;-73
2021/05/03 02:14:21;;;;;;;1.90;1.80;;;;;;;;;;5010377;28;20834;-72
2021/05/03 02:16:47;;;;;;;1.90;1.80;;;;;;;;;;5024613;28;20520;-73
2021/05/03 02:19:13;;;;;;;2.20;2.07;;;;;;;;;;5025736;28;20575;-73
2021/05/03 02:21:39;;;;;;;2.30;2.10;;;;;;;;;;5024057;28;20521;-74
2021/05/03 02:24:05;;;;;;;3.63;1.97;;;;;;;;;;5006598;28;20441;-73
2021/05/03 02:26:31;;;;;;;3.17;2.20;;;;;;;;;;5025150;28;20549;-74
2021/05/03 02:28:58;;;;;;;5.00;2.60;;;;;;;;;;5007058;28;20874;-73
2021/05/03 02:31:23;;;;;;;2.70;2.50;;;;;;;;;;5024031;28;20989;-75
2021/05/03 02:33:50;;;;;;;2.53;2.33;;;;;;;;;;5009595;28;20527;-74
2021/05/03 02:36:18;;;;;;;2.60;2.30;;;;;;;;;;5009067;28;21149;-73
2021/05/03 02:38:44;;;;;;;5.00;2.53;;;;;;;;;;5036834;28;20433;-74
2021/05/03 02:41:10;;;;;;;5.77;2.80;;;;;;;;;;5023773;28;20436;-74
2021/05/03 02:43:36;;;;;;;5.00;2.80;;;;;;;;;;5019276;28;20462;-74
2021/05/03 02:46:02;;;;;;;4.63;2.30;;;;;;;;;;5009920;28;21079;-75
2021/05/03 02:48:28;;;;;;;2.70;2.50;;;;;;;;;;5009307;28;20883;-76
2021/05/03 02:50:54;;;;;;;3.00;2.67;;;;;;;;;;5026818;28;20457;-75
2021/05/03 02:53:20;;;;;;;4.13;3.03;;;;;;;;;;5022987;28;20435;-74
2021/05/03 02:55:49;;;;;;;5.40;3.47;;;;;;;;;;5024331;28;20446;-73
2021/05/03 02:58:15;;;;;;;3.50;3.20;;;;;;;;;;5025177;28;20550;-75
2021/05/03 03:00:41;;;;;;;5.90;2.70;;;;;;;;;;5021813;28;20450;-73
2021/05/03 03:03:07;;;;;;;3.90;3.13;;;;;;;;;;5027576;28;20454;-74
2021/05/03 03:05:33;;;;;;;7.87;3.40;;;;;;;;;;5021899;28;20865;-74
2021/05/03 03:08:02;;;;;;;4.00;3.07;;;;;;;;;;5026641;28;20451;-73
2021/05/03 03:10:29;;;;;;;5.47;3.77;;;;;;;;;;5002634;28;20431;-72
2021/05/03 03:12:55;;;;;;;6.73;3.00;;;;;;;;;;5024277;28;20849;-72
2021/05/03 03:15:23;;;;;;;6.33;2.60;;;;;;;;;;5008071;28;20925;-72
2021/05/03 03:17:50;;;;;;;4.90;3.23;;;;;;;;;;5021551;28;20975;-74
2021/05/03 03:20:16;;;;;;;3.83;3.53;;;;;;;;;;5009851;28;20463;-74
2021/05/03 03:22:45;;;;;;;3.13;2.90;;;;;;;;;;5004268;28;20530;-74
2021/05/03 03:25:11;;;;;;;5.00;3.20;;;;;;;;;;5001636;28;20443;-75
2021/05/03 03:27:37;;;;;;;4.40;3.07;;;;;;;;;;5019561;28;20528;-73
2021/05/03 03:30:07;;;;;;;3.53;3.20;;;;;;;;;;5001281;28;20442;-77
2021/05/03 03:32:33;;;;;;;4.77;3.40;;;;;;;;;;5023091;28;20439;-72
2021/05/03 03:34:59;;;;;;;4.03;2.80;;;;;;;;;;5009331;28;20436;-73
2021/05/03 03:37:25;;;;;;;4.50;2.70;;;;;;;;;;5023024;28;20482;-76
2021/05/03 03:39:51;;;;;;;3.00;2.50;;;;;;;;;;5009265;28;20446;-74
2021/05/03 03:42:17;;;;;;;2.80;2.57;;;;;;;;;;5002979;28;20431;-77
2021/05/03 03:44:43;;;;;;;3.20;2.60;;;;;;;;;;5003604;28;20874;-75
2021/05/03 03:47:09;;;;;;;3.60;2.60;;;;;;;;;;5020476;28;20479;-74
2021/05/03 03:49:35;;;;;;;4.93;2.80;;;;;;;;;;5025239;28;20485;-73
2021/05/03 03:52:03;;;;;;;7.00;2.80;;;;;;;;;;5025302;28;20442;-73
2021/05/03 03:54:29;;;;;;;3.00;2.70;;;;;;;;;;5008194;28;20995;-76
2021/05/03 03:56:55;;;;;;;2.30;2.20;;;;;;;;;;5004473;28;26400;-74
2021/05/03 03:59:22;;;;;;;9.53;2.67;;;;;;;;;;5022989;28;20437;-74
2021/05/03 04:01:49;;;;;;;2.90;2.70;;;;;;;;;;5003698;28;20462;-73
2021/05/03 04:04:20;;;;;;;4.67;2.30;;;;;;;;;;5024626;28;20439;-74
2021/05/03 04:07:00;;;;;;;2.93;2.50;;;;;;;;;;5000808;28;20486;-76
2021/05/03 04:09:56;;;;;;;4.23;2.87;;;;;;;;;;5004710;28;20801;-73
2021/05/03 04:25:48;;;;;;;2.60;2.10;;;;;;;;;;5019794;28;20478;-73
2021/05/03 04:28:14;;;;;;;3.87;2.47;;;;;;;;;;5016437;28;20462;-73
2021/05/03 04:30:40;;;;;;;3.37;2.10;;;;;;;;;;5026980;28;20525;-72
2021/05/03 04:33:06;;;;;;;2.73;2.53;;;;;;;;;;5024577;28;20538;-73
2021/05/03 04:35:32;;;;;;;4.47;2.60;;;;;;;;;;5025815;28;20918;-72
2021/05/03 04:37:58;;;;;;;3.30;2.97;;;;;;;;;;5021147;28;21020;-73
2021/05/03 04:40:25;;;;;;;2.97;2.63;;;;;;;;;;5008348;28;20435;-73
2021/05/03 04:42:51;;;;;;;3.90;2.57;;;;;;;;;;5006706;28;20517;-73
2021/05/03 04:45:17;;;;;;;5.67;3.40;;;;;;;;;;5024330;28;20431;-73
2021/05/03 04:47:43;;;;;;;4.23;3.40;;;;;;;;;;5023393;28;20478;-73
2021/05/03 04:50:12;;;;;;;8.03;3.80;;;;;;;;;;5008467;28;20438;-75
2021/05/03 04:52:38;;;;;;;4.83;3.53;;;;;;;;;;5003588;28;20996;-72
2021/05/03 04:55:04;;;;;;;11.53;4.33;;;;;;;;;;5017468;28;20454;-74
2021/05/03 04:57:30;;;;;;;4.73;3.77;;;;;;;;;;5018300;28;20465;-73
2021/05/03 04:59:56;;;;;;;4.73;4.20;;;;;;;;;;5017286;28;20439;-73
2021/05/03 05:02:23;;;;;;;5.00;4.43;;;;;;;;;;5025885;28;20838;-73
2021/05/03 05:04:49;;;;;;;4.60;4.20;;;;;;;;;;5026847;28;20435;-74
2021/05/03 05:07:15;;;;;;;6.83;4.43;;;;;;;;;;5023029;28;20479;-74
2021/05/03 05:09:41;;;;;;;4.87;4.30;;;;;;;;;;5029448;28;20988;-73
2021/05/03 05:12:07;;;;;;;7.63;5.40;;;;;;;;;;5028426;28;20458;-75
2021/05/03 05:14:33;;;;;;;6.40;4.60;;;;;;;;;;5012698;28;20438;-74
2021/05/03 05:17:00;;;;;;;5.37;4.70;;;;;;;;;;5022501;28;20629;-75
2021/05/03 05:19:26;;;;;;;7.63;5.90;;;;;;;;;;5013963;28;20496;-74
2021/05/03 05:21:52;;;;;;;6.00;5.40;;;;;;;;;;5029778;28;20843;-76
2021/05/03 05:24:18;;;;;;;6.37;5.77;;;;;;;;;;5003902;28;20439;-73
2021/05/03 05:26:44;;;;;;;6.30;4.90;;;;;;;;;;5013264;28;20470;-74
2021/05/03 05:29:10;;;;;;;4.73;4.33;;;;;;;;;;5023075;28;20430;-74
2021/05/03 05:31:36;;;;;;;5.27;4.10;;;;;;;;;;5032484;28;20506;-75
2021/05/03 05:34:03;;;;;;;5.27;4.77;;;;;;;;;;5028500;28;20434;-73
2021/05/03 05:36:29;;;;;;;7.83;5.37;;;;;;;;;;5028639;28;21040;-74
2021/05/03 05:38:55;;;;;;;6.50;5.20;;;;;;;;;;5011365;28;20435;-74
2021/05/03 05:41:21;;;;;;;5.93;5.43;;;;;;;;;;5033301;28;20420;-75
2021/05/03 05:43:47;;;;;;;6.70;5.60;;;;;;;;;;5031269;28;20474;-75
2021/05/03 05:46:18;;;;;;;5.50;5.00;;;;;;;;;;5011286;28;20462;-74
2021/05/03 05:48:44;;;;;;;5.97;5.37;;;;;;;;;;5030765;28;20433;-73
2021/05/03 05:51:10;;;;;;;9.93;5.53;;;;;;;;;;5013363;28;20518;-74
2021/05/03 05:53:36;;;;;;;10.27;5.83;;;;;;;;;;5025971;28;20519;-74
2021/05/03 05:56:02;;;;;;;9.40;6.80;;;;;;;;;;5023267;28;20515;-75
2021/05/03 05:58:31;;;;;;;8.00;6.50;;;;;;;;;;5004682;28;20484;-74
2021/05/03 06:00:57;;;;;;;8.63;7.03;;;;;;;;;;5027532;28;20453;-75
2021/05/03 06:03:23;;;;;;;7.33;6.30;;;;;;;;;;5025917;28;20432;-76
2021/05/03 06:05:52;;;;;;;9.40;6.73;;;;;;;;;;5027125;28;20469;-76
2021/05/03 06:08:18;;;;;;;7.67;6.77;;;;;;;;;;5030587;28;20462;-75
2021/05/03 06:10:44;;;;;;;9.53;8.17;;;;;;;;;;5015079;28;20445;-75
2021/05/03 06:13:10;;;;;;;11.77;7.83;;;;;;;;;;5032784;28;20510;-73
2021/05/03 06:15:36;;;;;;;9.13;7.17;;;;;;;;;;5030824;28;20427;-74
2021/05/03 06:18:04;;;;;;;9.10;7.60;;;;;;;;;;5029789;28;20538;-75
2021/05/03 06:20:30;;;;;;;10.00;7.97;;;;;;;;;;5007557;28;20443;-73
2021/05/03 06:23:00;;;;;;;9.73;8.00;;;;;;;;;;5029846;28;21237;-74
2021/05/03 06:25:26;;;;;;;11.57;7.37;;;;;;;;;;5028905;28;20441;-72
2021/05/03 06:27:52;;;;;;;6.90;6.07;;;;;;;;;;5028398;28;20481;-74
2021/05/03 06:30:18;;;;;;;7.10;6.50;;;;;;;;;;5004977;28;20436;-76
2021/05/03 06:32:44;;;;;;;7.13;6.00;;;;;;;;;;5021841;28;20439;-74
2021/05/03 06:35:10;;;;;;;7.90;6.37;;;;;;;;;;5026061;28;20442;-73
2021/05/03 06:37:36;;;;;;;5.60;5.00;;;;;;;;;;5009277;28;20475;-73
2021/05/03 06:40:03;;;;;;;5.80;5.17;;;;;;;;;;5026911;28;21132;-75
2021/05/03 06:42:28;;;;;;;6.17;5.57;;;;;;;;;;5012707;28;20462;-74
2021/05/03 06:44:54;;;;;;;7.23;5.60;;;;;;;;;;5012871;28;20439;-74
2021/05/03 06:47:20;;;;;;;7.30;4.63;;;;;;;;;;5032365;28;20470;-74
2021/05/03 06:49:47;;;;;;;5.37;4.63;;;;;;;;;;5008960;28;20463;-74
2021/05/03 06:52:13;;;;;;;6.90;5.37;;;;;;;;;;5011701;28;21313;-73
2021/05/03 06:54:39;;;;;;;5.77;5.17;;;;;;;;;;5006175;28;20530;-73
2021/05/03 06:57:05;;;;;;;6.83;5.40;;;;;;;;;;5021818;28;20470;-74
2021/05/03 06:59:31;;;;;;;5.60;4.43;;;;;;;;;;5029462;28;20458;-74
2021/05/03 07:01:57;;;;;;;5.63;4.77;;;;;;;;;;5009448;28;20428;-75
2021/05/03 07:04:23;;;;;;;6.50;5.47;;;;;;;;;;5009316;28;20471;-76
2021/05/03 07:06:49;;;;;;;9.10;6.03;;;;;;;;;;5007898;28;21076;-74
2021/05/03 07:09:15;;;;;;;9.50;5.90;;;;;;;;;;5008197;28;20443;-74
2021/05/03 07:11:42;;;;;;;5.77;5.10;;;;;;;;;;5005139;28;20435;-72
2021/05/03 07:14:08;;;;;;;6.20;5.70;;;;;;;;;;5024248;28;20932;-72
2021/05/03 07:16:34;;;;;;;5.57;5.07;;;;;;;;;;5004499;28;21003;-72
2021/05/03 07:19:00;;;;;;;6.17;4.13;;;;;;;;;;5023429;28;20447;-72
2021/05/03 07:21:27;;;;;;;4.90;4.50;;;;;;;;;;5006439;28;20913;-72
2021/05/03 07:23:53;;;;;;;4.63;2.90;;;;;;;;;;5005640;28;20441;-73
2021/05/03 07:26:19;;;;;;;3.30;3.00;;;;;;;;;;5009060;28;20459;-72
2021/05/03 07:28:45;;;;;;;2.23;2.03;;;;;;;;;;5023375;28;20896;-72
2021/05/03 07:31:11;;;;;;;3.30;3.00;;;;;;;;;;5004502;28;20546;-72
2021/05/03 07:33:37;;;;;;;3.93;3.63;;;;;;;;;;5019106;28;20542;-75
2021/05/03 07:36:04;;;;;;;4.60;4.20;;;;;;;;;;5021755;28;21253;-77
2021/05/03 07:38:30;;;;;;;10.10;4.03;;;;;;;;;;5012147;28;20447;-77
2021/05/03 07:40:56;;;;;;;4.27;3.90;;;;;;;;;;5000051;28;20444;-72
2021/05/03 07:43:22;;;;;;;5.37;4.43;;;;;;;;;;5001218;28;20439;-73
2021/05/03 07:45:48;;;;;;;5.80;5.30;;;;;;;;;;5022020;28;20468;-72
2021/05/03 07:48:14;;;;;;;5.93;5.17;;;;;;;;;;5010779;28;20447;-72
2021/05/03 07:50:41;;;;;;;7.37;5.90;;;;;;;;;;5017536;28;20968;-71
2021/05/03 07:53:08;;;;;;;6.10;5.50;;;;;;;;;;5017700;28;20541;-72
2021/05/03 07:55:34;;;;;;;6.97;6.30;;;;;;;;;;5024116;28;20518;-71
2021/05/03 07:58:02;;;;;;;8.23;5.23;;;;;;;;;;5007757;28;21039;-74
2021/05/03 08:00:28;;;;;;;7.47;6.50;;;;;;;;;;5009228;28;20439;-75
2021/05/03 08:02:55;;;;;;;7.00;6.30;;;;;;;;;;5019962;28;20565;-73
2021/05/03 08:05:21;;;;;;;8.20;7.30;;;;;;;;;;5010503;28;20455;-74
2021/05/03 08:07:47;;;;;;;9.90;7.17;;;;;;;;;;5025676;28;20471;-74
2021/05/03 08:10:13;;;;;;;11.73;8.30;;;;;;;;;;5009981;28;20454;-74
2021/05/03 08:12:39;;;;;;;9.23;8.23;;;;;;;;;;5028407;28;20940;-73
2021/05/03 08:15:14;;;;;;;9.87;8.20;;;;;;;;;;5028741;28;20430;-73
2021/05/03 08:17:43;;;;;;;8.57;7.67;;;;;;;;;;5028496;28;20520;-72
2021/05/03 08:20:09;;;;;;;7.67;6.90;;;;;;;;;;5009551;28;20443;-72
2021/05/03 08:22:35;;;;;;;6.67;5.00;;;;;;;;;;5012315;28;21067;-76
2021/05/03 08:25:01;;;;;;;5.83;5.10;;;;;;;;;;5013225;28;20436;-75
2021/05/03 08:27:27;;;;;;;4.80;4.20;;;;;;;;;;5031395;28;20482;-73
2021/05/03 08:29:53;;;;;;;4.53;4.10;;;;;;;;;;5011485;28;20427;-72
2021/05/03 08:32:22;;;;;;;8.07;4.60;;;;;;;;;;5026103;28;20511;-73
2021/05/03 08:34:48;;;;;;;4.17;3.87;;;;;;;;;;5013254;28;21080;-76
2021/05/03 08:37:14;;;;;;;5.27;4.80;;;;;;;;;;5028586;28;20475;-73
2021/05/03 08:39:40;;;;;;;5.20;4.70;;;;;;;;;;5007780;28;20447;-74
2021/05/03 08:42:08;;;;;;;7.40;4.90;;;;;;;;;;5030889;28;20446;-74
2021/05/03 08:44:35;;;;;;;10.47;5.90;;;;;;;;;;5031348;28;20443;-74
2021/05/03 08:47:01;;;;;;;6.93;6.23;;;;;;;;;;5008032;28;20543;-73
2021/05/03 08:52:09;;;;;;;9.93;8.10;;;;;;;;;;5024779;28;20439;-73
2021/05/03 08:54:40;;;;;;;9.80;8.90;;;;;;;;;;5031950;28;20469;-76
2021/05/03 08:57:07;;;;;;;16.63;14.10;;;;;;;;;;5015857;28;20561;-73
2021/05/03 08:59:37;;;;;;;23.80;18.67;;;;;;;;;;5029083;28;20473;-74
2021/05/03 09:02:07;;;;;;;28.97;20.73;;;;;;;;;;5013179;28;21150;-75
2021/05/03 09:04:34;;;;;;;29.53;21.10;;;;;;;;;;5012517;28;20450;-73
2021/05/03 09:07:01;;;;;;;24.83;20.77;;;;;;;;;;5029922;28;20478;-72
2021/05/03 09:09:33;;;;;;;30.80;23.60;;;;;;;;;;5019045;28;20435;-73
2021/05/03 09:12:01;;;;;;;26.83;21.30;;;;;;;;;;5009748;28;20439;-72
2021/05/03 09:14:27;;;;;;;30.27;23.80;;;;;;;;;;5032991;28;20414;-71
2021/05/03 09:16:53;;;;;;;26.93;20.90;;;;;;;;;;5012454;28;20500;-72
2021/05/03 09:19:19;;;;;;;27.30;20.30;;;;;;;;;;5028947;28;20454;-73
2021/05/03 09:21:46;;;;;;;23.80;18.70;;;;;;;;;;5013798;28;20431;-72
2021/05/03 09:24:23;;;;;;;24.23;18.47;;;;;;;;;;5024922;28;20658;-73
2021/05/03 09:27:01;;;;;;;21.43;16.10;;;;;;;;;;5029077;28;20532;-72
2021/05/03 09:29:31;;;;;;;16.37;14.43;;;;;;;;;;5028294;28;21016;-72
2021/05/03 09:31:58;;;;;;;18.53;12.10;;;;;;;;;;5027768;28;20522;-72
2021/05/03 09:34:43;;;;;;;17.70;13.67;;;;;;;;;;5017465;28;20866;-72
2021/05/03 09:37:19;;;;;;;13.60;12.13;;;;;;;;;;5005953;28;20481;-72
2021/05/03 09:39:50;;;;;;;15.83;12.00;;;;;;;;;;5005954;28;20540;-73
2021/05/03 09:42:16;;;;;;;15.93;12.10;;;;;;;;;;5025645;28;20539;-72
2021/05/03 09:45:01;;;;;;;17.80;13.03;;;;;;;;;;5022877;28;20953;-71
2021/05/03 09:47:28;;;;;;;21.70;13.30;;;;;;;;;;5020016;28;20827;-72
2021/05/03 09:49:54;;;;;;;18.13;15.40;;;;;;;;;;5028225;28;20435;-72
2021/05/03 09:52:20;;;;;;;20.03;14.20;;;;;;;;;;5025858;28;20435;-72
2021/05/03 09:54:46;;;;;;;20.70;16.43;;;;;;;;;;5017676;28;20488;-72
2021/05/03 09:57:13;;;;;;;16.70;14.90;;;;;;;;;;5018737;28;20466;-72
2021/05/03 09:59:50;;;;;;;17.67;14.03;;;;;;;;;;5012777;28;20435;-71
2021/05/03 10:02:20;;;;;;;16.63;14.10;;;;;;;;;;4992437;28;20447;-71
2021/05/03 10:07:34;;;;;;;17.87;12.97;;;;;;;;;;5019633;28;20483;-72
2021/05/03 10:10:08;;;;;;;18.23;14.93;;;;;;;;;;5020432;28;20436;-72
2021/05/03 10:12:34;;;;;;;21.50;18.20;;;;;;;;;;5006402;28;21095;-74
2021/05/03 10:15:02;;;;;;;26.20;22.00;;;;;;;;;;5019468;28;20427;-73
2021/05/03 10:17:30;;;;;;;27.47;22.43;;;;;;;;;;5018681;28;20450;-74
2021/05/03 10:19:58;;;;;;;37.60;24.07;;;;;;;;;;5021762;28;20458;-72
2021/05/03 10:22:24;;;;;;;32.93;20.93;;;;;;;;;;5021880;28;20481;-71
2021/05/03 10:24:52;;;;;;;28.00;20.10;;;;;;;;;;5005225;28;21092;-74
2021/05/03 10:27:19;;;;;;;22.23;18.50;;;;;;;;;;5016497;28;20923;-72
2021/05/03 10:29:46;;;;;;;28.07;17.70;;;;;;;;;;5018306;28;20443;-73
2021/05/03 10:32:21;;;;;;;20.03;15.27;;;;;;;;;;5019146;28;20444;-74
2021/05/03 10:34:49;;;;;;;21.73;14.90;;;;;;;;;;5025718;28;20439;-74
2021/05/03 10:37:31;;;;;;;12.10;10.57;;;;;;;;;;5006826;28;20515;-71
2021/05/03 10:39:57;;;;;;;14.57;10.50;;;;;;;;;;5021213;28;20928;-74
2021/05/03 10:42:23;;;;;;;11.70;10.00;;;;;;;;;;5014715;28;20441;-73
2021/05/03 10:45:12;;;;;;;13.60;9.43;;;;;;;;;;5009602;28;20446;-72
2021/05/03 10:47:45;;;;;;;11.30;9.37;;;;;;;;;;5022188;28;20508;-74
2021/05/03 10:50:31;;;;;;;10.47;8.70;;;;;;;;;;5005443;28;20443;-72
2021/05/03 10:53:16;;;;;;;9.07;8.17;;;;;;;;;;5004445;28;20428;-72
2021/05/03 10:56:01;;;;;;;12.00;9.87;;;;;;;;;;5023856;28;20505;-74
2021/05/03 10:58:28;;;;;;;11.43;8.90;;;;;;;;;;5007197;28;21012;-74
2021/05/03 11:00:58;;;;;;;9.20;7.83;;;;;;;;;;5019664;28;20491;-72
2021/05/03 11:03:43;;;;;;;11.50;8.97;;;;;;;;;;5004460;28;20440;-74
2021/05/03 11:06:09;;;;;;;11.43;9.60;;;;;;;;;;4998701;28;20460;-70
2021/05/03 11:08:35;;;;;;;14.70;11.73;;;;;;;;;;5023226;28;20430;-73
2021/05/03 11:11:08;;;;;;;16.23;12.70;;;;;;;;;;5021327;28;20438;-72
2021/05/03 11:13:41;;;;;;;15.80;11.53;;;;;;;;;;5019919;28;20937;-71
2021/05/03 11:16:26;;;;;;;13.97;12.50;;;;;;;;;;5017619;28;20434;-71
2021/05/03 11:18:53;;;;;;;16.53;13.50;;;;;;;;;;5022577;28;21139;-70
2021/05/03 11:21:19;;;;;;;12.10;11.00;;;;;;;;;;5019931;28;20875;-72
2021/05/03 11:23:46;;;;;;;14.70;12.50;;;;;;;;;;5009285;28;20969;-71
2021/05/03 11:26:28;;;;;;;14.87;12.10;;;;;;;;;;5026454;28;20478;-71
2021/05/03 11:29:09;;;;;;;14.90;13.30;;;;;;;;;;5006047;28;20427;-71
2021/05/03 11:31:35;;;;;;;15.93;12.70;;;;;;;;;;5022911;28;20958;-71
2021/05/03 11:34:07;;;;;;;16.67;14.37;;;;;;;;;;5020666;28;20424;-71
2021/05/03 11:36:38;;;;;;;19.53;15.43;;;;;;;;;;5022274;28;20497;-71
2021/05/03 11:39:14;;;;;;;17.07;14.60;;;;;;;;;;5002298;28;20450;-72
2021/05/03 11:44:26;;;;;;;18.47;16.40;;;;;;;;;;5023037;28;20443;-72
2021/05/03 11:46:52;;;;;;;20.70;18.50;;;;;;;;;;5021566;28;20662;-72
2021/05/03 11:49:20;;;;;;;17.50;15.80;;;;;;;;;;5021604;28;21029;-72
2021/05/03 11:51:46;;;;;;;23.43;19.87;;;;;;;;;;5005337;28;20832;-72
2021/05/03 11:54:32;;;;;;;19.43;17.43;;;;;;;;;;5017382;28;20574;-72
2021/05/03 11:57:08;;;;;;;21.33;17.90;;;;;;;;;;5020777;28;20456;-72
2021/05/03 11:59:35;;;;;;;24.67;20.53;;;;;;;;;;5029956;28;20419;-71
2021/05/03 12:02:11;;;;;;;27.43;20.73;;;;;;;;;;5020525;28;20941;-72
2021/05/03 12:04:40;;;;;;;24.80;22.30;;;;;;;;;;5018426;28;20538;-71
2021/05/03 12:07:14;;;;;;;26.93;21.37;;;;;;;;;;5004559;28;20505;-71
2021/05/03 12:09:40;;;;;;;27.10;23.47;;;;;;;;;;5006033;28;20972;-71
2021/05/03 12:12:07;;;;;;;25.00;22.40;;;;;;;;;;5008400;28;20567;-71
2021/05/03 12:14:46;;;;;;;28.00;25.03;;;;;;;;;;5023888;28;20800;-72
2021/05/03 12:17:15;;;;;;;29.60;26.43;;;;;;;;;;5004220;28;20455;-73
2021/05/03 12:19:41;;;;;;;30.47;26.73;;;;;;;;;;5009826;28;20436;-73
2021/05/03 12:22:07;;;;;;;32.30;26.47;;;;;;;;;;5007422;28;26203;-72
2021/05/03 12:24:36;;;;;;;33.03;25.00;;;;;;;;;;5026270;28;20442;-71
2021/05/03 12:27:02;;;;;;;36.77;25.93;;;;;;;;;;5026825;28;20852;-72
2021/05/03 12:29:29;;;;;;;31.47;24.57;;;;;;;;;;5023487;28;20453;-72
2021/05/03 12:31:55;;;;;;;27.67;24.67;;;;;;;;;;5027495;28;20441;-72
2021/05/03 12:34:23;;;;;;;23.13;20.27;;;;;;;;;;5027690;28;20443;-70
2021/05/03 12:37:08;;;;;;;25.20;21.07;;;;;;;;;;5027099;28;20875;-72
2021/05/03 12:39:35;;;;;;;26.93;21.10;;;;;;;;;;5006602;28;20473;-71
2021/05/03 12:42:11;;;;;;;19.27;14.37;;;;;;;;;;5004206;28;20437;-72
2021/05/03 12:44:41;;;;;;;18.97;12.00;;;;;;;;;;5006614;28;20446;-72
2021/05/03 12:47:18;;;;;;;14.80;11.20;;;;;;;;;;5025009;28;20478;-72
2021/05/03 12:49:53;;;;;;;12.50;9.40;;;;;;;;;;5001750;28;20995;-71
2021/05/03 12:52:29;;;;;;;12.30;9.60;;;;;;;;;;5022515;28;20521;-71
2021/05/03 12:55:04;;;;;;;9.70;5.53;;;;;;;;;;5025937;28;21217;-72
2021/05/03 12:58:00;;;;;;;6.47;3.60;;;;;;;;;;5021895;28;20569;-72
2021/05/03 13:00:33;;;;;;;5.80;4.53;;;;;;;;;;5024583;28;20477;-71
2021/05/03 13:03:02;;;;;;;5.03;3.40;;;;;;;;;;5015575;28;20443;-73
2021/05/03 13:05:37;;;;;;;3.50;3.20;;;;;;;;;;5017153;28;20530;-72
2021/05/03 13:28:08;;;;;;;4.20;1.60;;;;;;;;;;5021665;28;21076;-75
2021/05/03 13:30:38;;;;;;;1.93;1.60;;;;;;;;;;5008484;28;20435;-74
2021/05/03 13:33:05;;;;;;;1.67;1.57;;;;;;;;;;5021923;28;20988;-75
2021/05/03 13:35:32;;;;;;;3.80;2.03;;;;;;;;;;5002865;28;20439;-74
2021/05/03 13:37:58;;;;;;;6.57;2.07;;;;;;;;;;5003649;28;20463;-74
2021/05/03 13:40:24;;;;;;;4.33;2.00;;;;;;;;;;5006838;28;20431;-74
2021/05/03 13:42:53;;;;;;;5.80;2.07;;;;;;;;;;5007517;28;20439;-74
2021/05/03 13:45:20;;;;;;;5.40;3.20;;;;;;;;;;5024671;28;20439;-74
2021/05/03 13:47:47;;;;;;;3.97;2.80;;;;;;;;;;5007436;28;20927;-75
2021/05/03 13:50:13;;;;;;;5.97;4.33;;;;;;;;;;5010586;28;20445;-74
2021/05/03 13:52:39;;;;;;;9.00;6.73;;;;;;;;;;5006275;28;20424;-75
2021/05/03 13:55:05;;;;;;;10.37;7.27;;;;;;;;;;5029386;28;20478;-74
2021/05/03 13:57:31;;;;;;;13.67;8.80;;;;;;;;;;5024224;28;21080;-77
2021/05/03 13:59:58;;;;;;;12.73;7.37;;;;;;;;;;5015660;28;21187;-80
2021/05/03 14:02:24;;;;;;;7.30;6.33;;;;;;;;;;5022611;28;20439;-74
2021/05/03 14:04:50;;;;;;;11.20;6.60;;;;;;;;;;5023243;28;20477;-74
2021/05/03 14:07:16;;;;;;;10.47;7.80;;;;;;;;;;5017842;28;20474;-74
2021/05/03 14:09:42;;;;;;;15.30;11.80;;;;;;;;;;5005700;28;20467;-74
2021/05/03 14:12:08;;;;;;;16.00;10.07;;;;;;;;;;5029480;28;20435;-73
2021/05/03 14:14:35;;;;;;;11.70;10.40;;;;;;;;;;5012367;28;20498;-75
2021/05/03 14:17:05;;;;;;;16.70;11.70;;;;;;;;;;5025213;28;20456;-76
2021/05/03 14:19:35;;;;;;;16.90;12.83;;;;;;;;;;5029271;28;20481;-75
2021/05/03 14:22:01;;;;;;;23.03;14.13;;;;;;;;;;5005504;28;20440;-77
2021/05/03 14:24:27;;;;;;;14.40;11.97;;;;;;;;;;5023146;28;20435;-75
2021/05/03 14:26:55;;;;;;;12.80;9.80;;;;;;;;;;4995564;28;20479;-75
2021/05/03 14:29:32;;;;;;;15.23;11.27;;;;;;;;;;5026098;28;20501;-74
2021/05/03 14:32:11;;;;;;;12.83;7.70;;;;;;;;;;5004603;28;20972;-75
2021/05/03 14:34:37;;;;;;;8.70;6.60;;;;;;;;;;5020613;28;20722;-74
2021/05/03 14:37:03;;;;;;;8.70;6.50;;;;;;;;;;5020435;28;20474;-73
2021/05/03 14:39:30;;;;;;;8.90;8.00;;;;;;;;;;5022784;28;20442;-75
2021/05/03 14:41:56;;;;;;;9.23;7.30;;;;;;;;;;5018850;28;20558;-73
2021/05/03 14:44:22;;;;;;;8.47;7.63;;;;;;;;;;5019585;28;20940;-73
2021/05/03 14:46:57;;;;;;;12.00;9.07;;;;;;;;;;5019334;28;20507;-73
2021/05/03 14:49:40;;;;;;;9.33;7.37;;;;;;;;;;5019234;28;21189;-72
2021/05/03 14:52:09;;;;;;;9.43;8.43;;;;;;;;;;5021638;28;20435;-77
2021/05/03 14:54:42;;;;;;;8.10;7.30;;;;;;;;;;5021852;28;21030;-73
2021/05/03 14:57:10;;;;;;;8.67;7.63;;;;;;;;;;4999895;28;20506;-80
2021/05/03 14:59:36;;;;;;;11.43;7.83;;;;;;;;;;5019183;28;20902;-73
2021/05/03 15:02:03;;;;;;;7.37;6.67;;;;;;;;;;5011471;28;20540;-73
2021/05/03 15:04:29;;;;;;;6.27;5.67;;;;;;;;;;5013430;28;20450;-74
2021/05/03 15:07:00;;;;;;;5.97;5.30;;;;;;;;;;5017767;28;21105;-73
2021/05/03 15:09:29;;;;;;;7.40;6.10;;;;;;;;;;5010516;28;20427;-73
2021/05/03 15:11:57;;;;;;;7.63;6.57;;;;;;;;;;5017359;28;20433;-73
2021/05/03 15:14:40;;;;;;;11.37;6.40;;;;;;;;;;5014913;28;20435;-72
2021/05/03 15:17:22;;;;;;;8.43;5.87;;;;;;;;;;5011865;28;20505;-73
2021/05/03 15:22:15;;;;;;;9.03;6.63;;;;;;;;;;5021240;28;20443;-75
2021/05/03 15:24:41;;;;;;;6.57;4.80;;;;;;;;;;5020628;28;20438;-75